Time;durP1;ratioP1;P1;durP2;ratioP2;P2;SDS_P1;SDS_P2;PMS_P1;PMS_P2;Temp;Humidity;BMP_temperature;BMP_pressure;BME280_temperature;BME280_humidity;BME280_pressure;Samples;Min_cycle;Max_cycle;Signal;HPM_P1;HPM_P2
2022/07/14 00:00:26;;;;;;;2.97;1.98;;;;;;;26.36;37.84;101309.69;5048925;27;98158;-71
2022/07/14 00:02:54;;;;;;;4.32;2.20;;;;;;;26.18;38.51;101316.78;5045754;27;96744;-72
2022/07/14 00:05:20;;;;;;;3.33;1.90;;;;;;;26.05;38.72;101311.63;5045325;27;97764;-72
2022/07/14 00:07:47;;;;;;;3.42;2.03;;;;;;;26.19;38.30;101316.63;5041893;27;99656;-72
2022/07/14 00:10:14;;;;;;;3.83;1.92;;;;;;;26.29;37.99;101323.94;5039603;27;98753;-71
2022/07/14 00:12:40;;;;;;;3.78;2.03;;;;;;;26.14;38.51;101315.34;5048545;27;97399;-71
2022/07/14 00:15:08;;;;;;;4.55;2.20;;;;;;;26.17;38.82;101315.06;5050340;27;97274;-71
2022/07/14 00:17:34;;;;;;;4.43;2.03;;;;;;;26.14;38.94;101318.03;5043613;27;98767;-71
2022/07/14 00:20:03;;;;;;;3.20;1.67;;;;;;;26.12;38.64;101310.03;5046541;27;98805;-71
2022/07/14 00:22:29;;;;;;;4.85;1.60;;;;;;;25.77;39.64;101317.84;5049618;27;96768;-70
2022/07/14 00:24:56;;;;;;;3.15;1.88;;;;;;;25.70;40.00;101320.25;5049208;27;97299;-71
2022/07/14 00:27:22;;;;;;;2.88;1.83;;;;;;;25.66;39.80;101321.53;5043545;27;98879;-71
2022/07/14 00:29:49;;;;;;;3.08;1.83;;;;;;;25.48;40.32;101322.25;5044949;27;98853;-71
2022/07/14 00:32:15;;;;;;;2.85;1.88;;;;;;;25.68;39.97;101326.78;5049999;27;96731;-71
2022/07/14 00:34:42;;;;;;;2.70;1.67;;;;;;;25.38;40.81;101324.94;5047336;27;99112;-70
2022/07/14 00:37:09;;;;;;;3.13;1.80;;;;;;;25.35;40.60;101327.91;5043179;27;99010;-71
2022/07/14 00:42:27;;;;;;;3.03;1.45;;;;;;;25.81;39.87;101332.78;5050326;27;96767;-70
2022/07/14 00:44:54;;;;;;;5.15;1.88;;;;;;;25.75;39.83;101326.09;5046396;27;97355;-71
2022/07/14 00:47:20;;;;;;;3.88;1.77;;;;;;;25.56;40.51;101327.84;5044180;27;100981;-72
2022/07/14 00:49:46;;;;;;;6.28;2.03;;;;;;;25.44;40.47;101326.22;5044661;27;99012;-71
2022/07/14 00:52:14;;;;;;;4.78;1.85;;;;;;;25.34;40.83;101334.28;5047865;27;96872;-71
2022/07/14 00:54:41;;;;;;;3.50;2.05;;;;;;;25.34;40.93;101335.16;5048196;27;97808;-72
2022/07/14 00:57:07;;;;;;;5.68;1.70;;;;;;;25.33;40.86;101335.31;5047708;27;98129;-72
2022/07/14 00:59:33;;;;;;;5.97;1.83;;;;;;;25.48;40.30;101350.16;5042325;27;102116;-72
2022/07/14 01:02:00;;;;;;;4.40;1.73;;;;;;;25.53;40.50;101347.94;5047400;27;97203;-72
2022/07/14 01:04:26;;;;;;;5.95;2.15;;;;;;;25.33;40.77;101346.13;5045057;27;96837;-72
2022/07/14 01:06:52;;;;;;;2.58;2.22;;;;;;;25.32;40.65;101344.41;5045977;27;99223;-72
2022/07/14 01:09:20;;;;;;;5.47;2.10;;;;;;;25.09;41.00;101346.41;5047132;27;99237;-70
2022/07/14 01:11:46;;;;;;;2.40;2.20;;;;;;;24.94;41.30;101356.69;5048298;27;96753;-71
2022/07/14 01:14:13;;;;;;;2.25;1.98;;;;;;;24.94;41.69;101359.41;5048911;27;97209;-72
2022/07/14 01:16:39;;;;;;;3.85;2.10;;;;;;;24.86;41.84;101353.78;5047798;27;97646;-71
2022/07/14 01:19:06;;;;;;;5.97;2.38;;;;;;;24.81;41.73;101356.00;5045260;27;98888;-71
2022/07/14 01:21:33;;;;;;;6.20;2.00;;;;;;;24.62;42.21;101354.00;5042209;27;96858;-71
2022/07/14 01:24:00;;;;;;;3.67;1.80;;;;;;;24.17;43.30;101369.50;5044658;27;96795;-71
2022/07/14 01:26:26;;;;;;;2.55;1.80;;;;;;;24.14;43.05;101364.38;5049092;27;98340;-71
2022/07/14 01:28:52;;;;;;;3.47;2.22;;;;;;;24.20;42.71;101365.72;5033488;27;98554;-72
2022/07/14 01:31:19;;;;;;;7.25;2.05;;;;;;;24.29;42.77;101374.88;5043411;27;97032;-72
2022/07/14 01:33:45;;;;;;;6.38;1.95;;;;;;;24.45;42.51;101369.94;5044632;27;97485;-72
2022/07/14 01:36:11;;;;;;;2.78;1.83;;;;;;;24.79;41.56;101368.81;5044981;27;98903;-72
2022/07/14 01:38:39;;;;;;;2.72;1.70;;;;;;;24.61;41.95;101368.50;5047475;27;98962;-73
2022/07/14 01:41:06;;;;;;;3.00;2.45;;;;;;;24.39;42.19;101363.22;5046412;27;96988;-71
2022/07/14 01:43:35;;;;;;;2.47;1.58;;;;;;;24.15;42.11;101365.22;5052694;27;97304;-71
2022/07/14 01:46:02;;;;;;;3.83;1.67;;;;;;;24.26;41.71;101376.03;5050031;27;97797;-71
2022/07/14 01:48:28;;;;;;;4.85;2.00;;;;;;;24.16;42.00;101370.47;5046487;27;98800;-71
2022/07/14 01:50:55;;;;;;;4.70;2.15;;;;;;;24.33;41.36;101363.72;5048155;27;97837;-71
2022/07/14 01:53:21;;;;;;;3.95;1.50;;;;;;;24.42;40.92;101364.78;5053138;27;97064;-71
2022/07/14 01:55:49;;;;;;;5.28;1.88;;;;;;;24.61;40.24;101370.38;5051491;27;97871;-71
2022/07/14 01:58:15;;;;;;;2.05;1.35;;;;;;;24.32;40.80;101377.34;5054178;27;98884;-71
2022/07/14 02:00:41;;;;;;;5.43;1.35;;;;;;;23.94;41.12;101370.53;5049298;27;97253;-71
2022/07/14 02:03:08;;;;;;;5.07;1.60;;;;;;;23.96;40.93;101376.66;5048692;27;98085;-71
2022/07/14 02:05:34;;;;;;;5.43;1.50;;;;;;;23.87;41.30;101373.88;5051689;27;99872;-70
2022/07/14 02:08:00;;;;;;;4.40;2.15;;;;;;;23.75;41.64;101381.13;5048934;27;97652;-71
2022/07/14 02:13:12;;;;;;;5.68;1.70;;;;;;;23.68;42.35;101380.75;5050199;27;97303;-71
2022/07/14 02:15:38;;;;;;;4.03;1.75;;;;;;;23.57;42.34;101383.44;5050500;27;98966;-72
2022/07/14 02:18:05;;;;;;;2.55;1.50;;;;;;;23.92;41.79;101386.00;5050445;27;100587;-71
2022/07/14 02:20:31;;;;;;;4.20;1.35;;;;;;;23.70;41.97;101383.31;5050961;27;97330;-72
2022/07/14 02:22:57;;;;;;;7.20;1.50;;;;;;;23.63;42.37;101387.50;5051442;27;97367;-71
2022/07/14 02:25:24;;;;;;;4.18;1.60;;;;;;;23.68;42.30;101393.38;5048589;27;98235;-72
2022/07/14 02:27:50;;;;;;;11.70;1.55;;;;;;;23.70;42.27;101399.50;5045226;27;97775;-71
2022/07/14 02:30:18;;;;;;;3.85;1.73;;;;;;;23.56;42.53;101400.63;5049328;27;97230;-72
2022/07/14 02:32:44;;;;;;;6.00;1.67;;;;;;;23.50;42.96;101402.94;5049736;27;96832;-71
2022/07/14 02:35:10;;;;;;;7.72;1.60;;;;;;;23.39;43.31;101401.91;5050885;27;98911;-70
2022/07/14 02:37:37;;;;;;;7.93;1.77;;;;;;;23.17;43.69;101399.16;5051198;27;100379;-71
2022/07/14 02:40:04;;;;;;;7.30;1.90;;;;;;;23.24;43.59;101395.00;5046994;27;96902;-70
2022/07/14 02:42:30;;;;;;;5.95;2.00;;;;;;;23.32;43.48;101397.97;5044071;27;98797;-71
2022/07/14 02:44:57;;;;;;;6.57;1.65;;;;;;;23.19;43.54;101399.06;5051758;27;99020;-71
2022/07/14 02:47:24;;;;;;;6.75;1.75;;;;;;;22.94;43.86;101400.09;5047752;27;100659;-72
2022/07/14 02:49:51;;;;;;;5.90;1.58;;;;;;;23.22;43.08;101405.09;5046873;27;98543;-72
2022/07/14 02:52:17;;;;;;;7.68;1.60;;;;;;;23.08;43.21;101417.91;5047778;27;97136;-71
2022/07/14 02:54:43;;;;;;;6.25;1.67;;;;;;;22.62;43.97;101424.94;5050795;27;99091;-71
2022/07/14 02:57:10;;;;;;;7.82;1.73;;;;;;;22.66;43.83;101423.72;5047799;27;98950;-71
2022/07/14 02:59:36;;;;;;;9.63;2.30;;;;;;;22.69;43.61;101424.47;5048694;27;97144;-72
2022/07/14 03:02:02;;;;;;;7.95;1.52;;;;;;;22.29;44.51;101421.19;5050601;27;97296;-70
2022/07/14 03:04:30;;;;;;;10.48;1.85;;;;;;;22.50;43.78;101425.84;5043901;27;99058;-70
2022/07/14 03:06:56;;;;;;;8.57;2.30;;;;;;;22.60;43.38;101436.78;5046425;27;100829;-71
2022/07/14 03:09:23;;;;;;;13.55;2.28;;;;;;;22.70;43.32;101434.28;5046410;27;96827;-70
2022/07/14 03:11:49;;;;;;;11.05;1.88;;;;;;;21.93;44.54;101430.94;5049613;27;96753;-71
2022/07/14 03:14:15;;;;;;;14.13;2.60;;;;;;;22.09;44.35;101428.03;5049382;27;99514;-70
2022/07/14 03:16:41;;;;;;;13.00;2.20;;;;;;;22.19;43.75;101429.06;5049161;27;98812;-70
2022/07/14 03:19:08;;;;;;;9.70;2.53;;;;;;;22.30;43.60;101434.56;5048426;27;96870;-71
2022/07/14 03:21:36;;;;;;;8.77;2.33;;;;;;;22.57;43.14;101439.72;5042372;27;97721;-70
2022/07/14 03:24:02;;;;;;;10.00;1.98;;;;;;;22.53;43.03;101439.06;5044019;27;99064;-71
2022/07/14 03:26:29;;;;;;;9.85;1.60;;;;;;;22.51;43.04;101429.41;5048047;27;99172;-69
2022/07/14 03:28:56;;;;;;;10.05;1.63;;;;;;;22.63;42.78;101434.75;5049363;27;98957;-71
2022/07/14 03:31:22;;;;;;;10.82;2.42;;;;;;;22.71;42.62;101425.22;5049089;27;97321;-70
2022/07/14 03:33:48;;;;;;;11.32;1.95;;;;;;;22.86;42.37;101440.25;5046624;27;99304;-70
2022/07/14 03:36:15;;;;;;;12.65;2.30;;;;;;;22.23;43.93;101447.59;5049094;27;98792;-71
2022/07/14 03:38:42;;;;;;;9.73;1.80;;;;;;;22.39;43.85;101441.06;5049723;27;97413;-71
2022/07/14 03:41:09;;;;;;;10.93;2.53;;;;;;;22.53;43.41;101455.22;5047769;27;96989;-71
2022/07/14 03:43:35;;;;;;;8.60;1.90;;;;;;;22.79;42.84;101458.69;5047788;27;99289;-71
2022/07/14 03:46:02;;;;;;;9.27;1.88;;;;;;;22.78;42.66;101456.13;5045909;27;98959;-70
2022/07/14 03:48:29;;;;;;;9.30;2.17;;;;;;;22.84;42.36;101464.59;5049522;27;97241;-71
2022/07/14 03:50:56;;;;;;;10.05;2.42;;;;;;;22.49;43.34;101461.84;5048799;27;97066;-71
2022/07/14 03:53:22;;;;;;;8.40;2.03;;;;;;;22.16;44.22;101461.63;5048335;27;97685;-71
2022/07/14 03:55:50;;;;;;;10.43;2.63;;;;;;;22.26;44.05;101462.66;5046267;27;98875;-71
2022/07/14 03:58:16;;;;;;;15.93;2.97;;;;;;;22.50;43.14;101470.78;5047558;27;97206;-71
2022/07/14 04:00:43;;;;;;;14.57;2.72;;;;;;;22.09;43.87;101466.56;5048015;27;97651;-71
2022/07/14 04:03:11;;;;;;;13.13;2.20;;;;;;;21.47;45.38;101471.84;5044318;27;98952;-70
2022/07/14 04:05:38;;;;;;;14.38;2.67;;;;;;;21.61;45.01;101476.25;5050719;27;101898;-71
2022/07/14 04:08:04;;;;;;;9.65;2.05;;;;;;;21.85;44.54;101468.31;5046557;27;96954;-71
2022/07/14 04:10:31;;;;;;;8.25;2.42;;;;;;;22.29;43.56;101464.25;5045704;27;97277;-71
2022/07/14 04:12:59;;;;;;;15.75;2.22;;;;;;;21.93;44.32;101459.66;5049718;27;100519;-70
2022/07/14 04:15:26;;;;;;;9.70;2.30;;;;;;;22.18;43.85;101463.22;5045092;27;99065;-71
2022/07/14 04:17:53;;;;;;;12.00;2.40;;;;;;;22.30;43.59;101472.25;5048124;27;98545;-71
2022/07/14 04:20:20;;;;;;;13.70;1.83;;;;;;;22.24;43.69;101467.31;5048147;27;97267;-70
2022/07/14 04:22:47;;;;;;;10.45;1.92;;;;;;;22.24;43.65;101475.38;5048330;27;98991;-71
2022/07/14 04:25:13;;;;;;;16.27;2.10;;;;;;;22.07;44.07;101475.72;5044700;27;97983;-70
2022/07/14 04:27:39;;;;;;;11.48;3.08;;;;;;;22.07;43.83;101473.03;5049751;27;98185;-70
2022/07/14 04:30:09;;;;;;;12.00;2.40;;;;;;;21.97;44.37;101488.13;5043548;27;96852;-71
2022/07/14 04:32:35;;;;;;;10.63;2.42;;;;;;;22.27;43.50;101485.91;5049797;27;96935;-71
2022/07/14 04:35:01;;;;;;;9.15;1.73;;;;;;;22.04;44.30;101492.09;5049790;27;99163;-71
2022/07/14 04:37:28;;;;;;;10.45;2.15;;;;;;;22.54;43.22;101485.72;5047294;27;97191;-70
2022/07/14 04:39:54;;;;;;;10.65;2.40;;;;;;;22.66;42.87;101487.50;5043279;27;97602;-71
2022/07/14 04:42:21;;;;;;;13.40;2.47;;;;;;;22.22;43.63;101482.69;5046450;27;99339;-71
2022/07/14 04:44:48;;;;;;;9.30;1.77;;;;;;;22.58;42.86;101485.38;5045705;27;99320;-70
2022/07/14 04:47:15;;;;;;;12.68;2.33;;;;;;;22.61;42.55;101484.31;5042974;27;96903;-70
2022/07/14 04:52:26;;;;;;;10.85;2.08;;;;;;;22.56;42.76;101481.09;5047154;27;97202;-71
2022/07/14 04:54:53;;;;;;;7.93;1.92;;;;;;;22.18;43.56;101489.28;5041821;27;99210;-70
2022/07/14 04:57:20;;;;;;;11.07;2.35;;;;;;;22.03;43.46;101477.78;5049326;27;97297;-72
2022/07/14 04:59:47;;;;;;;13.30;2.42;;;;;;;21.98;44.02;101479.97;5042317;27;97192;-71
2022/07/14 05:02:13;;;;;;;12.55;2.55;;;;;;;22.52;42.79;101479.56;5046057;27;99329;-70
2022/07/14 05:04:41;;;;;;;12.65;2.00;;;;;;;22.91;41.72;101481.16;5042135;27;99475;-70
2022/07/14 05:07:07;;;;;;;21.63;2.53;;;;;;;23.07;41.73;101478.19;5048678;27;97042;-71
2022/07/14 05:09:33;;;;;;;12.63;1.90;;;;;;;23.56;40.31;101473.47;5044748;27;96898;-70
2022/07/14 05:12:01;;;;;;;9.98;2.15;;;;;;;23.61;40.08;101476.66;5049328;27;99323;-70
2022/07/14 05:14:27;;;;;;;11.45;1.88;;;;;;;23.63;39.82;101473.84;5048907;27;98988;-71
2022/07/14 05:16:54;;;;;;;12.32;2.10;;;;;;;23.33;40.46;101482.44;5044828;27;97340;-71
2022/07/14 05:19:20;;;;;;;11.15;2.20;;;;;;;23.69;40.01;101478.75;5049984;27;97631;-71
2022/07/14 05:21:48;;;;;;;8.23;2.00;;;;;;;24.36;38.80;101476.03;5049636;27;98915;-71
2022/07/14 05:24:15;;;;;;;12.18;2.20;;;;;;;24.62;37.84;101485.56;5048615;27;98823;-73
2022/07/14 05:26:41;;;;;;;14.30;2.20;;;;;;;24.22;38.64;101483.41;5051406;27;97244;-71
2022/07/14 05:29:08;;;;;;;8.27;2.28;;;;;;;23.88;39.24;101489.78;5047781;27;97799;-71
2022/07/14 05:31:34;;;;;;;14.35;1.75;;;;;;;23.67;39.68;101495.03;5049844;27;98976;-72
2022/07/14 05:34:01;;;;;;;13.30;1.98;;;;;;;23.40;40.07;101494.47;5050875;27;99193;-72
2022/07/14 05:36:27;;;;;;;9.80;1.95;;;;;;;23.48;40.44;101496.59;5049378;27;97568;-71
2022/07/14 05:38:55;;;;;;;12.02;2.33;;;;;;;23.14;40.91;101496.47;5043237;27;96837;-72
2022/07/14 05:41:21;;;;;;;10.18;2.20;;;;;;;22.97;41.63;101503.13;5046638;27;99169;-71
2022/07/14 05:43:47;;;;;;;11.07;2.10;;;;;;;22.64;42.32;101503.78;5048684;27;98942;-71
2022/07/14 05:46:14;;;;;;;10.93;2.63;;;;;;;22.45;42.77;101500.72;5051549;27;96921;-72
2022/07/14 05:48:41;;;;;;;9.38;2.20;;;;;;;22.70;42.24;101504.31;5047037;27;98741;-71
2022/07/14 05:51:10;;;;;;;9.98;2.42;;;;;;;22.92;41.81;101491.84;5047241;27;100835;-71
2022/07/14 05:53:39;;;;;;;17.08;2.25;;;;;;;22.76;42.31;101503.88;5050015;27;99379;-71
2022/07/14 05:56:08;;;;;;;7.20;2.05;;;;;;;22.92;42.22;101502.63;5042766;27;97863;-71
2022/07/14 05:58:35;;;;;;;16.08;2.60;;;;;;;23.24;41.40;101505.56;5049141;27;96900;-72
2022/07/14 06:01:01;;;;;;;14.95;2.30;;;;;;;22.74;42.63;101511.22;5050171;27;97712;-71
2022/07/14 06:03:28;;;;;;;15.00;2.58;;;;;;;22.58;42.75;101501.53;5051703;27;101639;-71
2022/07/14 06:05:54;;;;;;;11.60;2.40;;;;;;;22.90;42.26;101509.13;5051723;27;96759;-72
2022/07/14 06:08:20;;;;;;;10.57;2.10;;;;;;;22.95;42.21;101506.94;5051298;27;96841;-71
2022/07/14 06:10:48;;;;;;;15.68;2.17;;;;;;;22.71;42.72;101514.13;5045253;27;98077;-71
2022/07/14 06:13:16;;;;;;;10.70;2.42;;;;;;;22.92;42.18;101515.22;5050795;27;99078;-70
2022/07/14 06:15:44;;;;;;;8.77;2.10;;;;;;;23.01;41.98;101514.53;5047267;27;97629;-71
2022/07/14 06:18:11;;;;;;;12.75;2.55;;;;;;;23.53;41.20;101510.59;5046523;27;98215;-71
2022/07/14 06:20:40;;;;;;;13.55;2.65;;;;;;;23.60;40.80;101514.53;5047325;27;99222;-71
2022/07/14 06:23:07;;;;;;;11.35;2.17;;;;;;;23.52;40.69;101508.84;5046463;27;99183;-71
2022/07/14 06:25:34;;;;;;;17.33;3.83;;;;;;;23.11;41.58;101514.69;5042579;27;97683;-70
2022/07/14 06:28:00;;;;;;;16.33;2.40;;;;;;;22.50;42.53;101503.97;5049615;27;96840;-71
2022/07/14 06:30:28;;;;;;;11.00;2.00;;;;;;;22.80;42.12;101499.97;5043981;27;99395;-71
2022/07/14 06:32:54;;;;;;;11.55;1.90;;;;;;;22.03;43.33;101501.16;5050564;27;98888;-70
2022/07/14 06:35:21;;;;;;;21.73;2.88;;;;;;;22.45;42.91;101498.03;5049214;27;96849;-71
2022/07/14 06:37:48;;;;;;;11.90;1.92;;;;;;;23.46;41.06;101510.16;5047538;27;98337;-71
2022/07/14 06:40:15;;;;;;;16.20;2.75;;;;;;;23.57;40.61;101510.22;5044631;27;102377;-71
2022/07/14 06:42:41;;;;;;;12.48;2.65;;;;;;;24.06;39.30;101509.06;5049111;27;101607;-71
2022/07/14 06:45:08;;;;;;;13.68;1.70;;;;;;;24.56;37.87;101513.94;5045659;27;98233;-71
2022/07/14 06:47:48;;;;;;;10.20;2.25;;;;;;;25.01;36.82;101517.41;5048124;27;97354;-71
2022/07/14 06:50:14;;;;;;;10.07;1.40;;;;;;;25.37;36.38;101512.59;5049435;27;98243;-70
2022/07/14 06:52:41;;;;;;;14.20;1.80;;;;;;;25.00;36.42;101515.72;5048052;27;98905;-71
2022/07/14 06:55:09;;;;;;;10.75;1.65;;;;;;;25.02;35.87;101516.41;5041486;27;97632;-71
2022/07/14 06:57:35;;;;;;;7.40;1.35;;;;;;;24.15;37.56;101509.19;5045418;27;97531;-71
2022/07/14 07:00:03;;;;;;;9.63;1.52;;;;;;;24.08;37.84;101510.66;5047920;27;99705;-71
2022/07/14 07:02:30;;;;;;;11.60;2.20;;;;;;;25.07;36.51;101517.91;5043177;27;98629;-70
2022/07/14 07:07:41;;;;;;;7.35;1.65;;;;;;;25.06;35.30;101514.34;5044918;27;97062;-71
2022/07/14 07:10:10;;;;;;;6.90;1.10;;;;;;;24.25;35.53;101509.31;5044057;27;98050;-72
2022/07/14 07:12:36;;;;;;;9.27;1.40;;;;;;;23.73;37.57;101501.78;5048293;27;98934;-72
2022/07/14 07:15:03;;;;;;;10.40;1.40;;;;;;;24.40;35.85;101507.22;5044155;27;96847;-71
2022/07/14 07:17:30;;;;;;;5.68;1.27;;;;;;;24.63;34.83;101498.09;5045383;27;96933;-72
2022/07/14 07:19:57;;;;;;;7.85;1.02;;;;;;;24.63;34.66;101498.94;5044825;27;97843;-72
2022/07/14 07:22:24;;;;;;;16.88;2.20;;;;;;;24.51;34.80;101499.09;5045959;27;101476;-72
2022/07/14 07:24:50;;;;;;;9.55;1.33;;;;;;;25.02;34.16;101499.34;5049011;27;97189;-72
2022/07/14 07:27:16;;;;;;;7.18;1.58;;;;;;;24.92;34.56;101495.69;5047091;27;98578;-71
2022/07/14 07:29:43;;;;;;;8.77;1.70;;;;;;;24.94;34.34;101491.03;5047082;27;99156;-72
2022/07/14 07:32:11;;;;;;;10.38;1.95;;;;;;;25.37;34.12;101485.53;5044650;27;98998;-74
2022/07/14 07:34:38;;;;;;;6.93;1.60;;;;;;;25.24;34.51;101490.28;5048463;27;97458;-70
2022/07/14 07:37:06;;;;;;;4.88;1.10;;;;;;;25.13;33.65;101479.53;5044221;27;97300;-71
2022/07/14 07:39:33;;;;;;;6.80;1.30;;;;;;;25.59;32.26;101471.91;5043850;27;98912;-71
2022/07/14 07:42:01;;;;;;;7.70;1.40;;;;;;;25.86;32.25;101470.47;5042843;27;98687;-71
2022/07/14 07:44:28;;;;;;;7.57;1.70;;;;;;;25.97;32.46;101467.66;5044626;27;97222;-71
2022/07/14 07:46:54;;;;;;;64.32;4.93;;;;;;;26.06;32.28;101473.09;5043048;27;98172;-71
2022/07/14 07:49:20;;;;;;;4.95;1.10;;;;;;;25.53;31.20;101467.00;5044159;27;98013;-71
2022/07/14 07:51:47;;;;;;;6.25;1.20;;;;;;;25.15;31.63;101466.69;5044956;27;99087;-71
2022/07/14 07:54:15;;;;;;;5.60;1.20;;;;;;;24.69;32.09;101458.88;5045306;27;96925;-71
2022/07/14 07:56:41;;;;;;;5.22;1.02;;;;;;;24.61;31.64;101462.25;5044333;27;97385;-71
2022/07/14 07:59:08;;;;;;;4.05;1.23;;;;;;;25.08;31.82;101462.81;5042964;27;99211;-71
2022/07/14 08:01:34;;;;;;;3.80;0.90;;;;;;;25.04;31.64;101454.09;5043091;27;99369;-72
2022/07/14 08:04:01;;;;;;;3.90;0.90;;;;;;;25.01;31.36;101460.63;5034766;27;99083;-71
2022/07/14 08:06:27;;;;;;;3.25;0.80;;;;;;;25.44;30.80;101454.25;5049038;27;97453;-71
2022/07/14 08:08:53;;;;;;;4.65;0.70;;;;;;;25.28;29.93;101460.13;5048140;27;99155;-72
2022/07/14 08:11:21;;;;;;;4.38;0.80;;;;;;;25.06;30.06;101456.69;5044140;27;98806;-70
2022/07/14 08:13:47;;;;;;;4.72;0.90;;;;;;;25.12;29.78;101461.56;5042220;27;97253;-70
2022/07/14 08:16:14;;;;;;;4.32;0.93;;;;;;;25.53;29.49;101445.34;5047770;27;96810;-71
2022/07/14 08:18:40;;;;;;;6.68;2.92;;;;;;;25.69;29.91;101450.28;5041611;27;99257;-70
2022/07/14 08:21:07;;;;;;;5.80;1.13;;;;;;;25.93;29.55;101456.22;5044212;27;98819;-70
2022/07/14 08:23:33;;;;;;;4.97;1.38;;;;;;;26.00;29.50;101448.41;5047032;27;96959;-70
2022/07/14 08:26:00;;;;;;;4.90;0.95;;;;;;;25.66;30.07;101445.16;5049353;27;97275;-71
2022/07/14 08:28:27;;;;;;;3.85;0.93;;;;;;;25.27;30.16;101444.88;5045675;27;99991;-70
2022/07/14 08:30:54;;;;;;;7.05;1.60;;;;;;;25.71;29.75;101443.75;5045231;27;98993;-70
2022/07/14 08:33:20;;;;;;;5.00;1.02;;;;;;;25.58;29.50;101437.72;5048220;27;97516;-70
2022/07/14 08:35:47;;;;;;;4.90;1.17;;;;;;;25.58;30.21;101436.84;5047261;27;96876;-71
2022/07/14 08:38:14;;;;;;;4.53;1.10;;;;;;;25.83;29.94;101441.81;5045355;27;99000;-71
2022/07/14 08:40:40;;;;;;;6.60;1.58;;;;;;;26.06;29.64;101439.75;5041905;27;99559;-71
2022/07/14 08:43:07;;;;;;;3.75;1.10;;;;;;;25.33;29.73;101438.09;5046893;27;96854;-71
2022/07/14 08:45:40;;;;;;;4.30;0.95;;;;;;;25.27;30.06;101427.81;5046040;27;96948;-72
2022/07/14 08:48:07;;;;;;;9.90;1.13;;;;;;;25.46;29.58;101422.50;5047647;27;98880;-71
2022/07/14 08:50:33;;;;;;;5.97;1.20;;;;;;;25.95;29.41;101426.31;5043559;27;98951;-71
2022/07/14 08:53:03;;;;;;;7.55;1.10;;;;;;;25.84;29.50;101421.88;5049490;27;98836;-70
2022/07/14 08:55:30;;;;;;;3.55;0.82;;;;;;;26.37;28.72;101422.50;5043964;27;96907;-74
2022/07/14 08:57:57;;;;;;;6.35;1.00;;;;;;;25.93;29.35;101420.19;5049319;27;98909;-71
2022/07/14 09:00:24;;;;;;;6.68;1.13;;;;;;;25.95;29.35;101418.19;5046974;27;98819;-71
2022/07/14 09:02:53;;;;;;;5.10;1.23;;;;;;;26.45;28.86;101414.47;5046484;27;97147;-70
2022/07/14 09:05:20;;;;;;;6.57;1.00;;;;;;;26.18;29.19;101411.56;5048717;27;97323;-71
2022/07/14 09:07:55;;;;;;;4.93;1.00;;;;;;;25.97;29.19;101400.81;5049648;27;98967;-70
2022/07/14 09:10:24;;;;;;;7.43;0.90;;;;;;;25.67;29.57;101403.53;5047014;27;98795;-71
2022/07/14 09:12:52;;;;;;;5.15;0.82;;;;;;;25.79;29.39;101403.34;5048083;27;98405;-72
2022/07/14 09:18:12;;;;;;;4.32;1.15;;;;;;;25.84;29.35;101402.91;5046479;27;97246;-70
2022/07/14 09:20:39;;;;;;;2.72;0.90;;;;;;;26.10;28.64;101400.56;5044680;27;99523;-70
2022/07/14 09:23:06;;;;;;;4.10;1.20;;;;;;;25.54;29.63;101392.06;5050900;27;97514;-71
2022/07/14 09:25:34;;;;;;;4.88;0.82;;;;;;;25.66;29.15;101382.91;5049113;27;97240;-71
2022/07/14 09:28:01;;;;;;;6.07;1.20;;;;;;;25.50;29.51;101375.25;5046839;27;102136;-70
2022/07/14 09:30:29;;;;;;;9.57;3.05;;;;;;;26.09;28.70;101379.91;5047218;27;98809;-71
2022/07/14 09:32:57;;;;;;;5.93;1.00;;;;;;;26.14;28.07;101385.75;5050538;27;96832;-70
2022/07/14 09:35:27;;;;;;;4.47;0.77;;;;;;;26.11;27.88;101372.50;5049094;27;98038;-70
2022/07/14 09:37:56;;;;;;;4.75;0.80;;;;;;;25.83;27.81;101373.28;5049603;27;98324;-72
2022/07/14 09:40:26;;;;;;;2.25;0.57;;;;;;;26.06;27.89;101383.72;5048303;27;98969;-71
2022/07/14 09:42:57;;;;;;;3.10;0.70;;;;;;;26.16;27.05;101372.94;5048847;27;96787;-71
2022/07/14 09:45:25;;;;;;;5.28;2.47;;;;;;;26.34;26.88;101363.16;5048427;27;96967;-72
2022/07/14 09:48:03;;;;;;;4.47;1.45;;;;;;;26.64;26.57;101369.44;5043067;27;99109;-70
2022/07/14 09:50:43;;;;;;;2.42;1.23;;;;;;;26.63;26.75;101356.88;5048111;27;98892;-71
2022/07/14 09:53:19;;;;;;;7.32;1.52;;;;;;;26.51;26.71;101357.03;5048677;27;96942;-70
2022/07/14 09:55:59;;;;;;;2.88;0.93;;;;;;;26.00;27.29;101350.94;5041826;27;97983;-70
2022/07/14 09:58:28;;;;;;;2.35;0.60;;;;;;;25.76;26.56;101346.75;5048980;27;99520;-71
2022/07/14 10:00:57;;;;;;;6.38;0.90;;;;;;;26.54;26.26;101351.31;5050161;27;99115;-70
2022/07/14 10:03:24;;;;;;;7.60;1.10;;;;;;;26.65;26.13;101347.59;5048197;27;97463;-71
2022/07/14 10:05:53;;;;;;;3.97;1.23;;;;;;;26.80;25.84;101345.31;5047281;27;97069;-72
2022/07/14 10:08:23;;;;;;;4.07;0.77;;;;;;;26.83;26.12;101350.47;5046532;27;99635;-71
2022/07/14 10:10:51;;;;;;;3.08;0.55;;;;;;;26.73;25.53;101350.44;5047809;27;98893;-71
2022/07/14 10:13:17;;;;;;;4.75;1.05;;;;;;;27.02;25.24;101333.31;5047878;27;96831;-70
2022/07/14 10:15:44;;;;;;;5.30;0.93;;;;;;;26.59;25.68;101335.47;5048689;27;97571;-70
2022/07/14 10:18:11;;;;;;;5.85;0.70;;;;;;;26.52;26.35;101341.59;5048084;27;98911;-71
2022/07/14 10:20:40;;;;;;;3.72;0.80;;;;;;;25.94;26.69;101340.66;5047360;27;98917;-72
2022/07/14 10:23:08;;;;;;;4.72;1.02;;;;;;;26.35;26.55;101335.06;5047735;27;97061;-73
2022/07/14 10:25:35;;;;;;;5.97;0.90;;;;;;;26.50;26.48;101339.06;5045645;27;97238;-71
2022/07/14 10:28:02;;;;;;;4.88;0.88;;;;;;;26.28;26.77;101343.88;5041697;27;98985;-72
2022/07/14 10:30:37;;;;;;;9.30;1.33;;;;;;;26.16;26.66;101346.72;5049724;27;98871;-71
2022/07/14 10:33:08;;;;;;;5.03;0.75;;;;;;;26.24;26.52;101332.50;5047711;27;96952;-71
2022/07/14 10:35:49;;;;;;;5.43;1.20;;;;;;;26.61;26.28;101338.06;5045988;27;97345;-70
2022/07/14 10:38:37;;;;;;;3.67;0.88;;;;;;;26.22;26.71;101342.56;5039846;27;99436;-71
2022/07/14 10:41:12;;;;;;;4.47;0.85;;;;;;;26.18;26.80;101343.88;5047692;27;98877;-71
2022/07/14 10:44:00;;;;;;;2.80;0.68;;;;;;;26.26;26.39;101335.91;5050435;27;96751;-72
2022/07/14 10:46:34;;;;;;;4.78;1.00;;;;;;;26.37;26.57;101338.50;5045871;27;97381;-70
2022/07/14 10:49:02;;;;;;;6.35;1.20;;;;;;;26.93;25.93;101329.63;5046987;27;99540;-71
2022/07/14 10:51:29;;;;;;;3.83;0.70;;;;;;;26.68;26.07;101327.50;5048151;27;98980;-70
2022/07/14 10:54:08;;;;;;;5.60;0.68;;;;;;;26.78;25.60;101331.06;5048963;27;97764;-73
2022/07/14 10:56:36;;;;;;;5.60;0.80;;;;;;;27.21;25.36;101328.69;5047341;27;97481;-72
2022/07/14 10:59:31;;;;;;;5.47;0.90;;;;;;;27.14;25.29;101316.72;5048252;27;99249;-71
2022/07/14 11:02:33;;;;;;;1.52;0.47;;;;;;;27.26;25.49;101310.09;5046429;27;98061;-71
2022/07/14 11:05:17;;;;;;;6.55;0.90;;;;;;;27.06;25.46;101316.59;5047721;27;97231;-70
2022/07/14 11:07:59;;;;;;;6.60;0.88;;;;;;;27.16;25.16;101320.16;5042050;27;97963;-72
2022/07/14 11:11:08;;;;;;;3.20;0.43;;;;;;;26.64;25.96;101307.09;5047686;27;97758;-70
2022/07/14 11:13:51;;;;;;;5.47;2.92;;;;;;;26.96;25.65;101308.50;5044843;27;99947;-72
2022/07/14 11:16:19;;;;;;;2.30;0.70;;;;;;;26.98;25.54;101300.19;5047724;27;97549;-71
2022/07/14 11:18:45;;;;;;;7.57;1.55;;;;;;;27.16;25.34;101298.47;5047459;27;98669;-72
2022/07/14 11:21:14;;;;;;;4.18;0.77;;;;;;;27.58;24.90;101300.72;5045015;27;99285;-69
2022/07/14 11:23:53;;;;;;;6.65;0.70;;;;;;;27.48;24.83;101303.47;5047505;27;99129;-71
2022/07/14 11:26:35;;;;;;;2.05;0.60;;;;;;;27.12;24.50;101294.31;5043716;27;97190;-71
2022/07/14 11:29:05;;;;;;;1.90;0.52;;;;;;;27.28;23.30;101282.84;5047506;27;97093;-71
2022/07/14 11:31:43;;;;;;;2.28;0.60;;;;;;;27.12;23.45;101283.47;5044759;27;97088;-70
2022/07/14 11:37:05;;;;;;;3.65;0.57;;;;;;;26.75;24.06;101279.81;5043195;27;99695;-72
2022/07/14 11:39:34;;;;;;;0.40;0.20;;;;;;;26.58;23.86;101268.72;5047682;27;98154;-72
2022/07/14 11:42:03;;;;;;;2.65;0.40;;;;;;;27.08;23.61;101271.22;5047016;27;100800;-71